Aérodrome :
LOGIN :

S'inscrire | Disclaimer

   EN    FR    IT 

 










Légende :    VFR   VFR Marginal   IFR   IFR Intensif   IFR Très Intensif
Visi : 
Plafond : 
>= 8 km
>= 3000ft
5 à 8 km
1000 à 3000 ft
1500m à 5 km
500 à 1000 ft
800 à 1500m
200 à 500 ft
< 800m
< 200 ft
Symboles :   Orages  Brouillard  Fortes neiges  Fortes précipitations  Vent > 20 kt
SIGMETs :   Divers  Orages  Givrage  Turbulence  Onde Orograph.  Cendres Volcan.







- Altitude de l'aérodrome : 13 ft
- Code IATA : OST


EBOS - Oostend bruges Int.

DERNIER METAR :
  • 261220Z 28009KT 9999 FEW020 09/04 Q1033 NOSIG

METARs EXPIRÉS :
  • 261150Z 29009KT 9999 FEW020 09/05 Q1034 NOSIG
  • 261120Z 29009KT 9999 FEW017 09/04 Q1034 NOSIG
  • 261050Z 30008KT 9999 FEW017 SCT044 09/04 Q1034 NOSIG
  • 261020Z 29009KT 9999 FEW017 SCT044 08/04 Q1034 NOSIG
  • 260950Z 30008KT 9999 FEW017 08/04 Q1034 NOSIG

TAF TAF EBOS
Valide du 26 à 12h jusqu'au 27 à 18h UTC


261110Z 2612/2718 32008KT 9999 FEW025
PROB30
TEMPO 2703/2707 2500 MIFG
Pas de NOTAMs connus pour ce terrain.



MET'MAP, la Météo Aéronautique d'un coup d'oeil ! - Copyright ORBIFLY Décembre 2007 - Disclaimer

ORBIFLY MET'MAP TEAM :

Programmation & Développement : Alexandra Zaïnal
Conception & Développement : Baudouin d'Aumeries
Co-Programmation & Développement : Marc-Olivier Méhu
Soutien technique & logistique : Manuel Goepfert

Contact : metmap@orbifly.com




SOURCES & CREDITS :

   NOAA